createdAt,value
2019-04-01T00:02:14.257Z,31.30
2019-04-01T00:04:42.532Z,31.30
2019-04-01T00:07:10.776Z,31.20
2019-04-01T00:09:39.052Z,31.20
2019-04-01T00:12:07.305Z,31.10
2019-04-01T00:14:35.578Z,31.10
2019-04-01T00:17:04.689Z,31.00
2019-04-01T00:19:32.961Z,31.00
2019-04-01T00:22:01.225Z,30.80
2019-04-01T00:24:29.478Z,30.80
2019-04-01T00:26:57.750Z,30.70
2019-04-01T00:29:26.025Z,30.60
2019-04-01T00:31:54.466Z,30.60
2019-04-01T00:34:22.993Z,30.60
2019-04-01T00:36:51.314Z,30.60
2019-04-01T00:39:19.576Z,30.50
2019-04-01T00:41:52.418Z,30.50
2019-04-01T00:44:20.939Z,30.50
2019-04-01T00:46:49.185Z,30.40
2019-04-01T00:49:17.438Z,30.30
2019-04-01T00:51:45.708Z,30.30
2019-04-01T00:54:14.213Z,30.30
2019-04-01T00:56:42.493Z,30.30
2019-04-01T00:59:10.750Z,30.20
2019-04-01T01:01:39.005Z,30.10
2019-04-01T01:04:07.267Z,30.20
2019-04-01T01:06:35.782Z,30.10
2019-04-01T01:09:05.474Z,30.10
2019-04-01T01:11:33.793Z,30.00
2019-04-01T01:14:02.066Z,30.00
2019-04-01T01:16:30.320Z,29.90
2019-04-01T01:18:58.594Z,29.90
2019-04-01T01:21:26.854Z,29.80
2019-04-01T01:23:55.119Z,29.80
2019-04-01T01:26:23.388Z,29.70
2019-04-01T01:28:51.899Z,29.70
2019-04-01T01:31:20.145Z,29.70
2019-04-01T01:33:48.668Z,29.70
2019-04-01T01:36:16.909Z,29.60
2019-04-01T01:38:45.176Z,29.60
2019-04-01T01:41:13.424Z,29.60
2019-04-01T01:43:41.697Z,29.50
2019-04-01T01:46:10.193Z,29.60
2019-04-01T01:48:38.473Z,29.40
2019-04-01T01:51:06.897Z,29.30
2019-04-01T01:53:35.156Z,29.40
2019-04-01T01:56:03.421Z,29.30
2019-04-01T01:58:31.678Z,29.30
2019-04-01T02:00:59.952Z,29.30
2019-04-01T02:03:28.206Z,29.30
2019-04-01T02:05:56.481Z,29.20
2019-04-01T02:08:24.753Z,29.10
2019-04-01T02:10:52.997Z,29.10
2019-04-01T02:13:21.290Z,29.10
2019-04-01T02:15:49.537Z,29.00
2019-04-01T02:18:17.860Z,29.00
2019-04-01T02:20:46.128Z,29.00
2019-04-01T02:23:14.397Z,29.00
2019-04-01T02:25:42.669Z,28.90
2019-04-01T02:28:10.937Z,28.90
2019-04-01T02:30:39.428Z,28.80
2019-04-01T02:33:07.697Z,28.90
2019-04-01T02:35:35.937Z,28.80
2019-04-01T02:38:04.397Z,28.80
2019-04-01T02:40:33.305Z,28.70
2019-04-01T02:43:01.570Z,28.60
2019-04-01T02:45:29.824Z,28.60
2019-04-01T02:47:58.154Z,28.50
2019-04-01T02:50:26.400Z,28.50
2019-04-01T02:52:54.658Z,28.50
2019-04-01T02:55:22.906Z,28.50
2019-04-01T02:57:51.170Z,28.40
2019-04-01T03:00:19.424Z,28.40
2019-04-01T03:02:47.947Z,28.40
2019-04-01T03:05:16.190Z,28.40
2019-04-01T03:07:44.494Z,28.30
2019-04-01T03:10:12.757Z,28.30
2019-04-01T03:12:41.356Z,28.30
2019-04-01T03:15:09.621Z,28.30
2019-04-01T03:17:37.929Z,28.20
2019-04-01T03:20:07.137Z,28.20
2019-04-01T03:22:35.504Z,28.20
2019-04-01T03:25:04.447Z,28.10
2019-04-01T03:27:32.688Z,28.10
2019-04-01T03:30:00.977Z,28.10
2019-04-01T03:32:29.533Z,28.10
2019-04-01T03:34:57.872Z,28.00
2019-04-01T03:37:26.387Z,28.00
2019-04-01T03:39:54.956Z,28.00
2019-04-01T03:42:23.205Z,27.90
2019-04-01T03:44:55.176Z,27.80
2019-04-01T03:47:21.841Z,27.80
2019-04-01T03:49:50.094Z,27.80
2019-04-01T03:52:18.357Z,27.80
2019-04-01T03:54:46.605Z,27.70
2019-04-01T03:57:14.858Z,27.80
2019-04-01T03:59:43.117Z,27.70
2019-04-01T04:02:11.392Z,27.70
2019-04-01T04:04:39.961Z,27.60
2019-04-01T04:07:08.269Z,27.60
2019-04-01T04:09:36.540Z,27.60
2019-04-01T04:12:04.810Z,27.50
2019-04-01T04:14:33.054Z,27.50
2019-04-01T04:17:01.322Z,27.50
2019-04-01T04:19:29.569Z,27.40
2019-04-01T04:21:57.815Z,27.40
2019-04-01T04:24:26.094Z,27.40
2019-04-01T04:26:54.585Z,27.30
2019-04-01T04:29:22.857Z,27.30
2019-04-01T04:31:51.112Z,27.20
2019-04-01T04:34:19.385Z,27.20
2019-04-01T04:36:47.631Z,27.20
2019-04-01T04:39:15.893Z,27.10
2019-04-01T04:41:44.158Z,27.10
2019-04-01T04:44:12.429Z,27.10
2019-04-01T04:46:40.689Z,27.10
2019-04-01T04:49:09.045Z,27.00
2019-04-01T04:51:37.285Z,27.00
2019-04-01T04:54:05.563Z,27.00
2019-04-01T04:56:33.832Z,27.00
2019-04-01T04:59:02.322Z,27.00
2019-04-01T05:01:30.588Z,26.90
2019-04-01T05:03:58.849Z,26.90
2019-04-01T05:06:27.334Z,26.90
2019-04-01T05:08:55.666Z,26.80
2019-04-01T05:11:23.933Z,26.80
2019-04-01T05:13:52.179Z,26.80
2019-04-01T05:16:20.427Z,26.70
2019-04-01T05:18:48.689Z,26.70
2019-04-01T05:21:16.965Z,26.70
2019-04-01T05:23:45.492Z,26.70
2019-04-01T05:26:13.741Z,26.70
2019-04-01T05:28:42.262Z,26.70
2019-04-01T05:31:10.549Z,26.70
2019-04-01T05:33:38.794Z,26.60
2019-04-01T05:36:07.061Z,26.70
2019-04-01T05:38:35.307Z,26.70
2019-04-01T05:41:04.132Z,26.60
2019-04-01T05:43:32.389Z,26.60
2019-04-01T05:46:00.652Z,26.60
2019-04-01T05:48:30.664Z,26.50
2019-04-01T05:50:58.944Z,26.50
2019-04-01T05:53:27.184Z,26.50
2019-04-01T05:55:55.470Z,26.50
2019-04-01T05:58:23.804Z,26.50
2019-04-01T06:00:53.921Z,26.40
2019-04-01T06:03:22.201Z,26.40
2019-04-01T06:05:50.444Z,26.40
2019-04-01T06:08:18.924Z,26.30
2019-04-01T06:10:47.189Z,26.30
2019-04-01T06:13:15.520Z,26.30
2019-04-01T06:15:43.788Z,26.20
2019-04-01T06:18:12.041Z,26.20
2019-04-01T06:20:40.311Z,26.20
2019-04-01T06:23:08.553Z,26.20
2019-04-01T06:25:36.818Z,26.20
2019-04-01T06:28:05.074Z,26.10
2019-04-01T06:30:33.420Z,26.10
2019-04-01T06:33:01.659Z,26.10
2019-04-01T06:35:29.926Z,26.00
2019-04-01T06:37:58.160Z,26.10
2019-04-01T06:40:26.449Z,26.00
2019-04-01T06:42:54.716Z,26.10
2019-04-01T06:45:22.959Z,26.00
2019-04-01T06:47:51.237Z,26.00
2019-04-01T06:50:19.481Z,26.00
2019-04-01T06:52:47.728Z,26.00
2019-04-01T06:55:15.983Z,26.00
2019-04-01T06:57:44.479Z,25.90
2019-04-01T07:00:12.793Z,25.90
2019-04-01T07:02:41.061Z,25.90
2019-04-01T07:05:12.427Z,25.90
2019-04-01T07:07:39.840Z,25.80
2019-04-01T07:10:08.334Z,25.80
2019-04-01T07:12:36.857Z,25.80
2019-04-01T07:15:06.489Z,25.80
2019-04-01T07:17:34.770Z,25.80
2019-04-01T07:20:03.261Z,25.80
2019-04-01T07:22:31.746Z,25.80
2019-04-01T07:25:00.459Z,25.70
2019-04-01T07:27:28.780Z,25.70
2019-04-01T07:29:57.309Z,25.70
2019-04-01T07:32:25.565Z,25.70
2019-04-01T07:34:54.061Z,25.60
2019-04-01T07:37:22.328Z,25.60
2019-04-01T07:39:50.687Z,25.60
2019-04-01T07:42:18.952Z,25.60
2019-04-01T07:44:47.192Z,25.50
2019-04-01T07:47:15.697Z,25.50
2019-04-01T07:49:43.964Z,25.50
2019-04-01T07:52:12.225Z,25.50
2019-04-01T07:54:40.881Z,25.50
2019-04-01T07:57:09.142Z,25.50
2019-04-01T07:59:37.389Z,25.50
2019-04-01T08:02:05.649Z,25.50
2019-04-01T08:04:34.130Z,25.50
2019-04-01T08:07:02.397Z,25.50
2019-04-01T08:09:30.665Z,25.40
2019-04-01T08:11:58.975Z,25.40
2019-04-01T08:14:27.592Z,25.40
2019-04-01T08:16:58.452Z,25.40
2019-04-01T08:19:25.823Z,25.30
2019-04-01T08:21:54.061Z,25.30
2019-04-01T08:24:22.329Z,25.30
2019-04-01T08:26:50.599Z,25.30
2019-04-01T08:29:30.187Z,25.30
2019-04-01T08:31:49.072Z,25.30
2019-04-01T08:34:17.313Z,25.30
2019-04-01T08:36:45.607Z,25.20
2019-04-01T08:39:14.258Z,25.20
2019-04-01T08:41:42.501Z,25.20
2019-04-01T08:44:10.760Z,25.30
2019-04-01T08:46:39.254Z,25.30
2019-04-01T08:49:08.060Z,25.20
2019-04-01T08:51:36.576Z,25.30
2019-04-01T08:54:04.837Z,25.20
2019-04-01T08:56:37.856Z,25.20
2019-04-01T08:59:03.245Z,25.20
2019-04-01T09:01:35.352Z,25.20
2019-04-01T09:04:01.706Z,25.20
2019-04-01T09:06:31.447Z,25.20
2019-04-01T09:08:59.824Z,25.20
2019-04-01T09:11:28.531Z,25.20
2019-04-01T09:13:56.794Z,25.20
2019-04-01T09:16:25.052Z,25.20
2019-04-01T09:18:53.321Z,25.20
2019-04-01T09:21:21.575Z,25.20
2019-04-01T09:23:52.098Z,25.20
2019-04-01T09:26:19.817Z,25.20
2019-04-01T09:28:48.048Z,25.20
2019-04-01T09:31:16.322Z,25.20
2019-04-01T09:33:44.567Z,25.20
2019-04-01T09:36:12.811Z,25.20
2019-04-01T09:38:41.087Z,25.20
2019-04-01T09:41:13.007Z,25.20
2019-04-01T09:43:39.386Z,25.20
2019-04-01T09:46:07.654Z,25.20
2019-04-01T09:48:35.897Z,25.20
2019-04-01T09:51:04.169Z,25.20
2019-04-01T09:53:32.416Z,25.20
2019-04-01T09:56:00.688Z,25.20
2019-04-01T09:58:28.934Z,25.20
2019-04-01T10:00:57.185Z,25.20
2019-04-01T10:03:25.685Z,25.20
2019-04-01T10:05:53.944Z,25.20
2019-04-01T10:08:22.379Z,25.20
2019-04-01T10:10:50.681Z,25.20
2019-04-01T10:13:18.944Z,25.20
2019-04-01T10:15:47.188Z,25.20
2019-04-01T10:18:15.444Z,25.20
2019-04-01T10:20:43.829Z,25.10
2019-04-01T10:23:12.094Z,25.10
2019-04-01T10:25:40.341Z,25.20
2019-04-01T10:28:08.600Z,25.10
2019-04-01T10:30:36.937Z,25.10
2019-04-01T10:33:05.235Z,25.20
2019-04-01T10:35:33.488Z,25.10
2019-04-01T10:38:01.986Z,25.10
2019-04-01T10:40:30.254Z,25.10
2019-04-01T10:42:58.497Z,25.10
2019-04-01T10:45:26.792Z,25.10
2019-04-01T10:47:55.351Z,25.10
2019-04-01T10:50:23.886Z,25.10
2019-04-01T10:52:52.508Z,25.10
2019-04-01T10:55:20.842Z,25.10
2019-04-01T10:57:49.175Z,25.10
2019-04-01T11:00:17.569Z,25.10
2019-04-01T11:02:49.718Z,25.10
2019-04-01T11:05:16.428Z,25.10
2019-04-01T11:07:44.761Z,25.10
2019-04-01T11:10:13.040Z,25.10
2019-04-01T11:12:41.289Z,25.10
2019-04-01T11:15:09.537Z,25.10
2019-04-01T11:17:37.937Z,25.10
2019-04-01T11:20:07.997Z,25.10
2019-04-01T11:22:36.450Z,25.10
2019-04-01T11:25:09.342Z,25.10
2019-04-01T11:27:37.676Z,25.10
2019-04-01T11:30:07.806Z,25.10
2019-04-01T11:32:36.602Z,25.10
2019-04-01T11:35:06.155Z,25.10
2019-04-01T11:37:34.511Z,25.10
2019-04-01T11:40:03.756Z,25.10
2019-04-01T11:42:31.997Z,25.10
2019-04-01T11:45:00.373Z,25.10
2019-04-01T11:47:28.690Z,25.10
2019-04-01T11:49:57.138Z,25.10
2019-04-01T11:52:25.659Z,25.10
2019-04-01T11:54:53.912Z,25.10
2019-04-01T11:57:22.255Z,25.00
2019-04-01T11:59:50.506Z,25.00
2019-04-01T12:02:18.768Z,25.00
2019-04-01T12:04:47.033Z,25.00
2019-04-01T12:07:15.298Z,25.00
2019-04-01T12:09:43.609Z,25.00
2019-04-01T12:12:22.735Z,25.00
2019-04-01T12:14:41.846Z,25.00
2019-04-01T12:17:10.105Z,25.00
2019-04-01T12:19:38.400Z,25.00
2019-04-01T12:22:06.626Z,25.00
2019-04-01T12:24:34.971Z,25.00
2019-04-01T12:27:03.229Z,25.00
2019-04-01T12:29:31.524Z,25.00
2019-04-01T12:32:00.087Z,25.00
2019-04-01T12:34:28.573Z,25.00
2019-04-01T12:36:56.843Z,25.00
2019-04-01T12:39:25.096Z,25.00
2019-04-01T12:41:53.346Z,25.00
2019-04-01T12:44:21.601Z,25.00
2019-04-01T12:46:49.850Z,25.00
2019-04-01T12:49:18.117Z,26.20
2019-04-01T12:51:46.381Z,26.80
2019-04-01T12:54:15.365Z,27.10
2019-04-01T12:56:44.161Z,27.10
2019-04-01T12:59:12.622Z,27.10
2019-04-01T13:01:40.900Z,27.10
2019-04-01T13:04:10.002Z,27.10
2019-04-01T13:06:38.850Z,27.00
2019-04-01T13:09:07.714Z,26.90
2019-04-01T13:11:36.457Z,26.90
2019-04-01T13:14:05.120Z,26.80
2019-04-01T13:16:34.288Z,26.80
2019-04-01T13:19:02.706Z,26.80
2019-04-01T13:21:34.422Z,26.70
2019-04-01T13:24:01.011Z,26.60
2019-04-01T13:26:29.278Z,26.60
2019-04-01T13:28:57.638Z,26.60
2019-04-01T13:31:25.916Z,26.50
2019-04-01T13:33:54.174Z,26.30
2019-04-01T13:36:22.439Z,26.30
2019-04-01T13:38:50.698Z,26.30
2019-04-01T13:41:19.232Z,26.30
2019-04-01T13:43:47.483Z,26.20
2019-04-01T13:46:15.724Z,26.10
2019-04-01T13:48:56.871Z,26.10
2019-04-01T13:51:13.977Z,26.10
2019-04-01T13:53:42.393Z,26.00
2019-04-01T13:56:12.489Z,26.00
2019-04-01T13:58:40.668Z,26.00
2019-04-01T14:01:08.927Z,26.00
2019-04-01T14:03:37.208Z,26.00
2019-04-01T14:06:05.474Z,26.00
2019-04-01T14:08:33.721Z,25.90
2019-04-01T14:11:05.680Z,25.90
2019-04-01T14:13:31.982Z,25.80
2019-04-01T14:16:00.217Z,25.80
2019-04-01T14:18:28.497Z,25.80
2019-04-01T14:20:56.741Z,25.80
2019-04-01T14:23:25.052Z,25.80
2019-04-01T14:25:53.328Z,25.70
2019-04-01T14:28:21.588Z,25.70
2019-04-01T14:30:49.941Z,25.70
2019-04-01T14:33:18.245Z,25.70
2019-04-01T14:35:46.520Z,25.60
2019-04-01T14:38:14.997Z,25.60
2019-04-01T14:40:43.266Z,25.60
2019-04-01T14:43:11.769Z,25.50
2019-04-01T14:45:40.288Z,25.50
2019-04-01T14:48:08.973Z,25.50
2019-04-01T14:50:37.241Z,25.50
2019-04-01T14:53:05.490Z,25.50
2019-04-01T14:55:33.728Z,25.50
2019-04-01T14:58:01.988Z,25.50
2019-04-01T15:00:30.241Z,25.50
2019-04-01T15:02:58.525Z,25.50
2019-04-01T15:05:26.764Z,25.40
2019-04-01T15:07:55.040Z,25.40
2019-04-01T15:10:23.547Z,25.40
2019-04-01T15:13:04.470Z,25.40
2019-04-01T15:15:21.766Z,25.40
2019-04-01T15:17:50.291Z,25.40
2019-04-01T15:20:18.597Z,25.40
2019-04-01T15:22:46.881Z,25.30
2019-04-01T15:25:15.372Z,25.30
2019-04-01T15:27:43.653Z,25.30
2019-04-01T15:30:14.167Z,25.30
2019-04-01T15:32:42.348Z,25.30
2019-04-01T15:35:10.793Z,25.20
2019-04-01T15:37:39.061Z,25.20
2019-04-01T15:40:07.336Z,25.20
2019-04-01T15:42:35.645Z,25.20
2019-04-01T15:45:06.204Z,25.20
2019-04-01T15:47:34.826Z,25.20
2019-04-01T15:50:03.138Z,25.10
2019-04-01T15:52:31.401Z,25.10
2019-04-01T15:54:59.664Z,25.10
2019-04-01T15:57:27.938Z,25.10
2019-04-01T15:59:56.179Z,25.10
2019-04-01T16:02:24.452Z,25.10
2019-04-01T16:04:52.721Z,25.00
2019-04-01T16:07:22.389Z,25.00
2019-04-01T16:09:51.859Z,25.00
2019-04-01T16:12:20.241Z,25.00
2019-04-01T16:14:48.490Z,25.00
2019-04-01T16:17:16.805Z,25.00
2019-04-01T16:19:45.092Z,24.90
2019-04-01T16:22:13.340Z,24.90
2019-04-01T16:24:41.599Z,24.90
2019-04-01T16:27:09.842Z,24.90
2019-04-01T16:29:38.109Z,24.90
2019-04-01T16:32:06.364Z,24.90
2019-04-01T16:34:34.852Z,24.90
2019-04-01T16:37:03.382Z,25.10
2019-04-01T16:39:31.673Z,25.10
2019-04-01T16:41:59.989Z,25.00
2019-04-01T16:44:28.477Z,24.90
2019-04-01T16:46:56.737Z,24.80
2019-04-01T16:49:25.217Z,24.80
2019-04-01T16:51:53.490Z,24.80
2019-04-01T16:54:22.000Z,24.70
2019-04-01T16:56:50.246Z,24.70
2019-04-01T16:59:18.513Z,24.60
2019-04-01T17:01:46.753Z,24.60
2019-04-01T17:04:15.014Z,24.50
2019-04-01T17:06:43.934Z,24.50
2019-04-01T17:09:12.508Z,24.50
2019-04-01T17:11:40.749Z,24.50
2019-04-01T17:14:09.569Z,24.40
2019-04-01T17:16:37.930Z,24.40
2019-04-01T17:19:06.202Z,24.40
2019-04-01T17:21:34.446Z,24.30
2019-04-01T17:24:02.713Z,24.30
2019-04-01T17:26:30.981Z,24.30
2019-04-01T17:28:59.225Z,24.20
2019-04-01T17:31:27.492Z,24.20
2019-04-01T17:33:55.733Z,24.20
2019-04-01T17:36:24.006Z,24.10
2019-04-01T17:38:52.332Z,24.10
2019-04-01T17:41:20.669Z,24.10
2019-04-01T17:43:48.914Z,24.10
2019-04-01T17:46:17.474Z,24.10
2019-04-01T17:48:45.965Z,24.00
2019-04-01T17:51:14.223Z,24.00
2019-04-01T17:53:42.489Z,23.90
2019-04-01T17:56:10.755Z,23.90
2019-04-01T17:58:38.997Z,23.90
2019-04-01T18:01:07.246Z,23.80
2019-04-01T18:03:35.510Z,23.80
2019-04-01T18:06:03.755Z,23.80
2019-04-01T18:08:32.016Z,23.80
2019-04-01T18:11:00.501Z,23.70
2019-04-01T18:13:28.780Z,23.70
2019-04-01T18:15:57.655Z,23.70
2019-04-01T18:18:27.403Z,23.60
2019-04-01T18:20:56.001Z,23.60
2019-04-01T18:23:24.287Z,23.60
2019-04-01T18:25:53.692Z,23.60
2019-04-01T18:28:21.971Z,23.50
2019-04-01T18:30:50.209Z,23.50
2019-04-01T18:33:19.901Z,23.50
2019-04-01T18:35:48.332Z,23.50
2019-04-01T18:38:17.267Z,23.40
2019-04-01T18:40:45.857Z,23.40
2019-04-01T18:43:14.149Z,23.40
2019-04-01T18:45:42.410Z,23.30
2019-04-01T18:48:10.685Z,23.30
2019-04-01T18:50:38.952Z,23.30
2019-04-01T18:53:07.779Z,23.30
2019-04-01T18:55:36.100Z,23.30
2019-04-01T18:58:04.369Z,23.30
2019-04-01T19:00:32.648Z,23.30
2019-04-01T19:03:00.939Z,23.20
2019-04-01T19:05:29.205Z,23.20
2019-04-01T19:07:57.497Z,23.20
2019-04-01T19:10:25.798Z,23.20
2019-04-01T19:13:05.274Z,23.20
2019-04-01T19:15:24.755Z,23.10
2019-04-01T19:17:53.900Z,23.10
2019-04-01T19:20:22.192Z,23.10
2019-04-01T19:22:50.449Z,23.10
2019-04-01T19:25:18.701Z,23.10
2019-04-01T19:27:47.225Z,23.10
2019-04-01T19:30:15.496Z,23.00
2019-04-01T19:32:43.765Z,23.00
2019-04-01T19:35:12.481Z,23.00
2019-04-01T19:37:40.749Z,23.00
2019-04-01T19:40:09.015Z,23.00
2019-04-01T19:42:39.487Z,23.00
2019-04-01T19:45:07.254Z,23.00
2019-04-01T19:47:35.517Z,22.90
2019-04-01T19:50:06.022Z,22.90
2019-04-01T19:52:34.507Z,22.90
2019-04-01T19:55:03.456Z,22.80
2019-04-01T19:57:31.994Z,22.90
2019-04-01T20:00:00.237Z,22.80
2019-04-01T20:02:28.745Z,22.80
2019-04-01T20:04:57.021Z,22.80
2019-04-01T20:07:25.737Z,22.80
2019-04-01T20:09:53.987Z,22.80
2019-04-01T20:12:22.248Z,22.80
2019-04-01T20:14:50.493Z,22.70
2019-04-01T20:17:18.766Z,22.70
2019-04-01T20:19:47.259Z,22.70
2019-04-01T20:22:15.518Z,22.70
2019-04-01T20:24:43.769Z,22.70
2019-04-01T20:27:12.037Z,22.70
2019-04-01T20:29:40.595Z,22.70
2019-04-01T20:32:17.233Z,22.60
2019-04-01T20:34:38.801Z,22.60
2019-04-01T20:37:07.041Z,22.60
2019-04-01T20:39:35.313Z,22.60
2019-04-01T20:42:03.586Z,22.60
2019-04-01T20:44:31.846Z,22.60
2019-04-01T20:47:00.326Z,22.60
2019-04-01T20:49:29.361Z,22.50
2019-04-01T20:51:58.517Z,22.50
2019-04-01T20:54:26.784Z,22.50
2019-04-01T20:56:55.032Z,22.50
2019-04-01T20:59:23.313Z,22.50
2019-04-01T21:01:51.568Z,22.50
2019-04-01T21:04:19.843Z,22.50
2019-04-01T21:06:48.085Z,22.50
2019-04-01T21:09:16.713Z,22.50
2019-04-01T21:11:44.958Z,22.50
2019-04-01T21:14:13.218Z,22.40
2019-04-01T21:16:41.736Z,22.40
2019-04-01T21:19:09.974Z,22.40
2019-04-01T21:21:39.447Z,22.40
2019-04-01T21:24:08.019Z,22.40
2019-04-01T21:26:36.286Z,22.40
2019-04-01T21:29:04.541Z,22.40
2019-04-01T21:31:32.796Z,22.40
2019-04-01T21:34:01.290Z,22.40
2019-04-01T21:36:29.558Z,22.40
2019-04-01T21:38:57.793Z,22.40
2019-04-01T21:41:26.074Z,22.30
2019-04-01T21:43:54.337Z,22.30
2019-04-01T21:46:22.605Z,22.30
2019-04-01T21:48:50.849Z,22.30
2019-04-01T21:51:19.122Z,22.30
2019-04-01T21:53:47.359Z,22.30
2019-04-01T21:56:15.620Z,22.30
2019-04-01T21:58:43.864Z,22.20
2019-04-01T22:01:14.223Z,22.20
2019-04-01T22:03:42.572Z,22.20
2019-04-01T22:06:11.861Z,22.20
2019-04-01T22:08:40.257Z,22.20
2019-04-01T22:11:08.544Z,22.20
2019-04-01T22:13:36.800Z,22.20
2019-04-01T22:16:05.041Z,22.20
2019-04-01T22:18:33.305Z,22.20
2019-04-01T22:21:01.551Z,22.20
2019-04-01T22:23:30.065Z,22.20
2019-04-01T22:25:59.054Z,22.20
2019-04-01T22:28:27.889Z,22.20
2019-04-01T22:30:56.166Z,22.20
2019-04-01T22:33:24.409Z,22.20
2019-04-01T22:35:52.674Z,22.20
2019-04-01T22:38:25.185Z,22.10
2019-04-01T22:40:50.927Z,22.10
2019-04-01T22:43:19.189Z,22.10
2019-04-01T22:45:49.097Z,22.10
2019-04-01T22:48:17.493Z,22.10
2019-04-01T22:50:45.995Z,22.10
2019-04-01T22:53:14.264Z,22.10
2019-04-01T22:55:42.771Z,22.10
2019-04-01T22:58:11.033Z,22.10
2019-04-01T23:00:39.277Z,22.10
2019-04-01T23:03:07.617Z,22.00
2019-04-01T23:05:37.179Z,22.00
2019-04-01T23:08:05.641Z,22.00
2019-04-01T23:10:34.063Z,22.00
2019-04-01T23:13:02.582Z,22.00
2019-04-01T23:15:30.829Z,22.00
2019-04-01T23:17:59.068Z,22.00
2019-04-01T23:20:27.350Z,22.00
2019-04-01T23:22:55.580Z,22.00
2019-04-01T23:25:23.850Z,22.00
2019-04-01T23:27:52.093Z,22.00
2019-04-01T23:30:20.873Z,22.00
2019-04-01T23:32:49.122Z,21.90
2019-04-01T23:35:17.392Z,21.90
2019-04-01T23:37:45.641Z,21.90
2019-04-01T23:40:13.913Z,21.90
2019-04-01T23:42:42.422Z,21.90
2019-04-01T23:45:10.698Z,21.90
2019-04-01T23:47:38.943Z,21.90
2019-04-01T23:50:09.134Z,21.90
2019-04-01T23:52:37.634Z,21.80
2019-04-01T23:55:06.285Z,21.80
2019-04-01T23:57:34.562Z,21.80
